createdAt,value
2023-05-25T00:01:38.692Z,101830.94
2023-05-25T00:04:05.482Z,101832.59
2023-05-25T00:06:32.896Z,101834.31
2023-05-25T00:08:59.543Z,101831.94
2023-05-25T00:11:27.140Z,101832.03
2023-05-25T00:13:53.946Z,101831.25
2023-05-25T00:16:20.892Z,101829.16
2023-05-25T00:18:48.725Z,101834.31
2023-05-25T00:21:16.240Z,101828.09
2023-05-25T00:23:43.304Z,101816.91
2023-05-25T00:26:10.030Z,101825.56
2023-05-25T00:28:36.636Z,101806.53
2023-05-25T00:31:03.418Z,101818.59
2023-05-25T00:33:30.425Z,101815.72
2023-05-25T00:35:57.415Z,101812.97
2023-05-25T00:38:24.176Z,101814.66
2023-05-25T00:40:56.452Z,101812.81
2023-05-25T00:43:23.203Z,101812.88
2023-05-25T00:45:51.663Z,101811.72
2023-05-25T00:48:18.870Z,101815.09
2023-05-25T00:50:45.995Z,101811.47
2023-05-25T00:53:14.071Z,101809.69
2023-05-25T00:56:02.724Z,101824.31
2023-05-25T00:58:33.144Z,101824.19
2023-05-25T01:01:00.625Z,101824.59
2023-05-25T01:03:29.777Z,101821.75
2023-05-25T01:05:58.395Z,101823.41
2023-05-25T01:08:26.237Z,101825.88
2023-05-25T01:10:54.031Z,101827.00
2023-05-25T01:13:21.590Z,101828.75
2023-05-25T01:15:49.817Z,101824.88
2023-05-25T01:18:18.175Z,101827.28
2023-05-25T01:21:20.290Z,101832.34
2023-05-25T01:23:53.485Z,101829.28
2023-05-25T01:26:23.798Z,101839.56
2023-05-25T01:28:53.231Z,101837.63
2023-05-25T01:31:23.382Z,101837.56
2023-05-25T01:33:51.774Z,101834.75
2023-05-25T01:36:19.415Z,101838.44
2023-05-25T01:38:46.391Z,101836.78
2023-05-25T01:41:13.052Z,101842.06
2023-05-25T01:43:40.365Z,101846.97
2023-05-25T01:46:31.900Z,101846.72
2023-05-25T01:49:19.556Z,101846.66
2023-05-25T01:52:07.773Z,101842.00
2023-05-25T01:54:44.660Z,101846.25
2023-05-25T01:57:15.146Z,101843.38
2023-05-25T01:59:46.516Z,101846.03
2023-05-25T02:02:18.793Z,101844.78
2023-05-25T02:04:46.303Z,101850.69
2023-05-25T02:07:13.092Z,101846.25
2023-05-25T02:09:39.873Z,101846.97
2023-05-25T02:12:06.727Z,101844.63
2023-05-25T02:14:33.342Z,101843.78
2023-05-25T02:17:02.426Z,101841.66
2023-05-25T02:19:29.942Z,101839.00
2023-05-25T02:21:56.743Z,101841.50
2023-05-25T02:24:24.952Z,101841.56
2023-05-25T02:26:53.159Z,101846.44
2023-05-25T02:29:20.688Z,101845.00
2023-05-25T02:31:47.667Z,101834.66
2023-05-25T02:34:15.404Z,101842.84
2023-05-25T02:36:43.415Z,101841.69
2023-05-25T02:39:10.990Z,101836.31
2023-05-25T02:41:38.912Z,101838.00
2023-05-25T02:44:07.250Z,101839.66
2023-05-25T02:46:34.360Z,101837.19
2023-05-25T02:49:01.480Z,101837.72
2023-05-25T02:51:28.646Z,101838.41
2023-05-25T02:53:57.745Z,101839.88
2023-05-25T02:56:24.499Z,101849.31
2023-05-25T02:58:51.386Z,101838.72
2023-05-25T03:01:30.825Z,101841.53
2023-05-25T03:03:57.680Z,101845.19
2023-05-25T03:06:26.567Z,101850.50
2023-05-25T03:09:09.673Z,101856.50
2023-05-25T03:11:37.915Z,101855.75
2023-05-25T03:14:05.052Z,101866.69
2023-05-25T03:16:36.313Z,101870.03
2023-05-25T03:19:05.490Z,101865.91
2023-05-25T03:21:34.378Z,101878.72
2023-05-25T03:24:01.017Z,101873.38
2023-05-25T03:26:28.883Z,101880.34
2023-05-25T03:28:55.629Z,101880.25
2023-05-25T03:31:23.329Z,101875.69
2023-05-25T03:33:50.070Z,101882.31
2023-05-25T03:36:18.156Z,101885.66
2023-05-25T03:38:45.119Z,101880.34
2023-05-25T03:41:11.825Z,101882.94
2023-05-25T03:43:38.611Z,101892.75
2023-05-25T03:46:07.083Z,101888.13
2023-05-25T03:48:33.755Z,101885.53
2023-05-25T03:51:00.356Z,101888.31
2023-05-25T03:53:27.294Z,101888.00
2023-05-25T03:55:54.076Z,101889.41
2023-05-25T03:58:20.860Z,101886.00
2023-05-25T04:00:51.455Z,101893.31
2023-05-25T04:03:18.454Z,101894.47
2023-05-25T04:05:48.104Z,101894.94
2023-05-25T04:08:24.836Z,101902.72
2023-05-25T04:10:51.426Z,101901.13
2023-05-25T04:13:18.038Z,101901.25
2023-05-25T04:15:44.834Z,101906.38
2023-05-25T04:18:16.271Z,101906.22
2023-05-25T04:20:43.096Z,101909.97
2023-05-25T04:23:12.613Z,101904.41
2023-05-25T04:25:42.161Z,101908.22
2023-05-25T04:28:09.047Z,101912.53
2023-05-25T04:30:47.982Z,101907.19
2023-05-25T04:33:32.302Z,101912.00
2023-05-25T04:36:01.726Z,101914.78
2023-05-25T04:38:30.612Z,101913.34
2023-05-25T04:41:01.986Z,101913.59
2023-05-25T04:43:29.974Z,101911.06
2023-05-25T04:45:59.813Z,101927.06
2023-05-25T04:48:35.141Z,101928.91
2023-05-25T04:51:04.351Z,101923.03
2023-05-25T04:53:32.584Z,101925.22
2023-05-25T04:55:59.446Z,101923.16
2023-05-25T04:58:26.342Z,101931.78
2023-05-25T05:00:52.983Z,101934.22
2023-05-25T05:03:19.782Z,101945.19
2023-05-25T05:05:47.043Z,101943.50
2023-05-25T05:08:19.290Z,101948.38
2023-05-25T05:10:46.070Z,101949.56
2023-05-25T05:13:14.119Z,101956.75
2023-05-25T05:15:41.721Z,101952.78
2023-05-25T05:18:08.793Z,101955.53
2023-05-25T05:20:36.450Z,101952.91
2023-05-25T05:23:03.325Z,101956.34
2023-05-25T05:25:30.260Z,101955.09
2023-05-25T05:27:57.302Z,101953.69
2023-05-25T05:30:27.639Z,101956.75
2023-05-25T05:32:55.816Z,101954.00
2023-05-25T05:35:25.826Z,101952.03
2023-05-25T05:38:00.660Z,101954.22
2023-05-25T05:40:27.364Z,101958.59
2023-05-25T05:42:54.099Z,101958.91
2023-05-25T05:45:21.396Z,101962.22
2023-05-25T05:47:48.090Z,101970.13
2023-05-25T05:50:15.048Z,101970.78
2023-05-25T05:52:41.912Z,101974.38
2023-05-25T05:55:10.829Z,101984.63
2023-05-25T05:57:39.736Z,101990.03
2023-05-25T06:00:08.783Z,101991.91
2023-05-25T06:02:45.505Z,101988.56
2023-05-25T06:05:18.563Z,101994.78
2023-05-25T06:07:45.262Z,101992.00
2023-05-25T06:10:13.183Z,101999.00
2023-05-25T06:12:40.063Z,102000.47
2023-05-25T06:15:08.052Z,102003.38
2023-05-25T06:17:37.282Z,102007.41
2023-05-25T06:20:06.599Z,102010.75
2023-05-25T06:22:33.599Z,102001.97
2023-05-25T06:25:01.666Z,102005.31
2023-05-25T06:27:28.496Z,102009.28
2023-05-25T06:29:55.682Z,102013.84
2023-05-25T06:32:23.359Z,102015.00
2023-05-25T06:34:50.090Z,102009.13
2023-05-25T06:37:17.242Z,102016.50
2023-05-25T06:39:44.225Z,102024.38
2023-05-25T06:42:11.790Z,102027.50
2023-05-25T06:44:49.704Z,102027.44
2023-05-25T06:47:16.356Z,102026.22
2023-05-25T06:49:43.161Z,102029.75
2023-05-25T06:52:09.989Z,102026.94
2023-05-25T06:54:36.943Z,102027.78
2023-05-25T06:57:03.673Z,102023.81
2023-05-25T06:59:31.074Z,102032.09
2023-05-25T07:01:59.087Z,102033.88
2023-05-25T07:04:26.514Z,102036.59
2023-05-25T07:06:53.316Z,102032.25
2023-05-25T07:09:20.126Z,102031.84
2023-05-25T07:12:00.331Z,102034.56
2023-05-25T07:14:27.076Z,102035.44
2023-05-25T07:16:53.811Z,102032.56
2023-05-25T07:19:20.630Z,102031.72
2023-05-25T07:21:49.324Z,102045.16
2023-05-25T07:24:16.412Z,102043.06
2023-05-25T07:26:44.463Z,102043.16
2023-05-25T07:29:12.354Z,102054.28
2023-05-25T07:31:39.035Z,102044.72
2023-05-25T07:34:05.803Z,102050.75
2023-05-25T07:36:32.718Z,102054.91
2023-05-25T07:38:59.424Z,102053.72
2023-05-25T07:41:26.349Z,102053.31
2023-05-25T07:43:53.246Z,102048.38
2023-05-25T07:46:25.070Z,102042.81
2023-05-25T07:48:52.445Z,102055.47
2023-05-25T07:51:19.168Z,102054.63
2023-05-25T07:53:45.831Z,102056.53
2023-05-25T07:56:12.515Z,102052.16
2023-05-25T07:58:39.178Z,102059.69
2023-05-25T08:01:06.335Z,102063.63
2023-05-25T08:03:48.091Z,102071.88
2023-05-25T08:06:15.985Z,102065.66
2023-05-25T08:08:44.940Z,102069.28
2023-05-25T08:11:11.987Z,102069.78
2023-05-25T08:13:39.155Z,102065.25
2023-05-25T08:16:06.963Z,102063.63
2023-05-25T08:18:33.695Z,102071.41
2023-05-25T08:21:01.086Z,102067.59
2023-05-25T08:23:27.774Z,102075.03
2023-05-25T08:25:54.404Z,102076.28
2023-05-25T08:28:22.400Z,102075.44
2023-05-25T08:30:49.236Z,102081.66
2023-05-25T08:33:15.880Z,102082.31
2023-05-25T08:35:43.275Z,102083.03
2023-05-25T08:38:10.178Z,102077.38
2023-05-25T08:40:41.433Z,102073.19
2023-05-25T08:43:08.212Z,102080.09
2023-05-25T08:45:36.491Z,102085.78
2023-05-25T08:48:12.022Z,102078.25
2023-05-25T08:50:43.548Z,102077.44
2023-05-25T08:53:12.240Z,102068.81
2023-05-25T08:55:43.431Z,102077.09
2023-05-25T08:58:19.452Z,102080.63
2023-05-25T09:00:56.874Z,102084.34
2023-05-25T09:03:23.879Z,102087.56
2023-05-25T09:05:51.154Z,102086.56
2023-05-25T09:08:18.550Z,102084.91
2023-05-25T09:10:45.587Z,102084.97
2023-05-25T09:13:21.953Z,102087.88
2023-05-25T09:15:52.241Z,102089.84
2023-05-25T09:18:19.986Z,102092.81
2023-05-25T09:20:47.629Z,102094.88
2023-05-25T09:23:15.162Z,102089.72
2023-05-25T09:25:41.920Z,102101.78
2023-05-25T09:28:25.765Z,102094.03
2023-05-25T09:30:55.985Z,102094.22
2023-05-25T09:33:22.940Z,102094.44
2023-05-25T09:35:51.539Z,102093.31
2023-05-25T09:38:18.909Z,102095.63
2023-05-25T09:40:46.206Z,102085.81
2023-05-25T09:43:21.969Z,102090.00
2023-05-25T09:45:55.812Z,102095.91
2023-05-25T09:48:23.013Z,102086.22
2023-05-25T09:50:51.312Z,102099.16
2023-05-25T09:53:18.399Z,102097.34
2023-05-25T09:55:53.925Z,102094.06
2023-05-25T09:58:27.622Z,102096.59
2023-05-25T10:00:55.421Z,102098.38
2023-05-25T10:03:22.654Z,102093.31
2023-05-25T10:05:49.780Z,102092.66
2023-05-25T10:08:19.926Z,102097.91
2023-05-25T10:10:50.267Z,102098.94
2023-05-25T10:13:29.197Z,102107.47
2023-05-25T10:15:57.933Z,102106.75
2023-05-25T10:18:28.034Z,102107.97
2023-05-25T10:21:03.191Z,102117.16
2023-05-25T10:23:41.755Z,102114.72
2023-05-25T10:26:09.925Z,102112.66
2023-05-25T10:28:39.473Z,102123.75
2023-05-25T10:31:06.989Z,102117.75
2023-05-25T10:33:34.100Z,102119.34
2023-05-25T10:36:10.879Z,102115.44
2023-05-25T10:38:40.628Z,102122.66
2023-05-25T10:43:39.665Z,102118.84
2023-05-25T10:46:06.961Z,102115.00
2023-05-25T10:48:40.237Z,102119.88
2023-05-25T10:51:09.042Z,102124.25
2023-05-25T10:53:37.785Z,102130.03
2023-05-25T10:56:06.090Z,102117.94
2023-05-25T10:58:34.213Z,102121.81
2023-05-25T11:01:06.637Z,102124.75
2023-05-25T11:04:14.216Z,102105.84
2023-05-25T11:06:40.853Z,102121.09
2023-05-25T11:09:08.203Z,102119.59
2023-05-25T11:11:59.574Z,102124.63
2023-05-25T11:14:36.001Z,102116.41
2023-05-25T11:17:16.133Z,102121.38
2023-05-25T11:19:43.916Z,102118.88
2023-05-25T11:22:21.095Z,102121.72
2023-05-25T11:24:49.129Z,102125.34
2023-05-25T11:27:15.889Z,102116.59
2023-05-25T11:29:42.544Z,102116.59
2023-05-25T11:32:14.486Z,102111.53
2023-05-25T11:34:46.737Z,102108.09
2023-05-25T11:37:16.799Z,102114.81
2023-05-25T11:39:50.355Z,102104.41
2023-05-25T11:42:17.810Z,102109.31
2023-05-25T11:44:44.744Z,102095.78
2023-05-25T11:47:18.853Z,102099.78
2023-05-25T11:49:47.721Z,102095.41
2023-05-25T11:52:18.625Z,102101.38
2023-05-25T11:54:46.393Z,102089.22
2023-05-25T11:57:18.239Z,102095.78
2023-05-25T12:00:01.225Z,102089.69
2023-05-25T12:02:28.057Z,102082.56
2023-05-25T12:05:02.463Z,102080.22
2023-05-25T12:07:37.601Z,102074.13
2023-05-25T12:10:08.850Z,102067.63
2023-05-25T12:12:38.938Z,102072.50
2023-05-25T12:15:06.189Z,102074.53
2023-05-25T12:17:34.062Z,102062.34
2023-05-25T12:20:01.317Z,102060.00
2023-05-25T12:22:28.278Z,102065.00
2023-05-25T12:24:54.889Z,102060.22
2023-05-25T12:27:24.630Z,102067.25
2023-05-25T12:29:53.164Z,102064.69
2023-05-25T12:32:19.943Z,102062.97
2023-05-25T12:34:46.951Z,102064.66
2023-05-25T12:37:21.791Z,102065.47
2023-05-25T12:39:48.826Z,102067.97
2023-05-25T12:42:16.993Z,102069.78
2023-05-25T12:44:46.565Z,102062.72
2023-05-25T12:47:14.774Z,102058.59
2023-05-25T12:49:45.058Z,102059.84
2023-05-25T12:52:32.647Z,102062.50
2023-05-25T12:55:18.554Z,102052.72
2023-05-25T12:57:47.074Z,102051.91
2023-05-25T13:00:14.421Z,102055.22
2023-05-25T13:02:47.968Z,102050.56
2023-05-25T13:05:28.556Z,102047.22
2023-05-25T13:07:57.380Z,102046.38
2023-05-25T13:10:24.483Z,102043.16
2023-05-25T13:12:52.015Z,102036.63
2023-05-25T13:15:21.126Z,102035.06
2023-05-25T13:17:49.100Z,102037.66
2023-05-25T13:20:19.115Z,102047.03
2023-05-25T13:22:47.014Z,102046.19
2023-05-25T13:25:14.631Z,102040.78
2023-05-25T13:27:47.778Z,102043.13
2023-05-25T13:30:15.702Z,102041.44
2023-05-25T13:32:46.546Z,102025.97
2023-05-25T13:35:19.374Z,102043.19
2023-05-25T13:37:46.326Z,102030.25
2023-05-25T13:40:13.594Z,102026.66
2023-05-25T13:42:40.663Z,102032.75
2023-05-25T13:45:07.963Z,102028.41
2023-05-25T13:47:35.051Z,102035.28
2023-05-25T13:50:08.665Z,102034.38
2023-05-25T13:52:38.346Z,102032.47
2023-05-25T13:55:05.467Z,102024.31
2023-05-25T13:57:32.148Z,102017.47
2023-05-25T13:59:58.708Z,102023.81
2023-05-25T14:02:25.410Z,102017.03
2023-05-25T14:04:52.068Z,102024.28
2023-05-25T14:07:18.717Z,102023.38
2023-05-25T14:09:46.517Z,102019.38
2023-05-25T14:12:14.362Z,102019.44
2023-05-25T14:14:41.254Z,102013.59
2023-05-25T14:17:07.937Z,102009.34
2023-05-25T14:19:35.348Z,101997.28
2023-05-25T14:22:12.466Z,102001.78
2023-05-25T14:24:40.472Z,102001.06
2023-05-25T14:27:08.705Z,102006.31
2023-05-25T14:29:35.474Z,102008.03
2023-05-25T14:32:02.204Z,102009.69
2023-05-25T14:34:29.417Z,101999.09
2023-05-25T14:36:56.645Z,102014.78
2023-05-25T14:39:23.315Z,102005.84
2023-05-25T14:41:50.290Z,102010.88
2023-05-25T14:44:17.915Z,102009.13
2023-05-25T14:46:47.181Z,102006.69
2023-05-25T14:49:13.948Z,102004.09
2023-05-25T14:51:40.616Z,102007.75
2023-05-25T14:54:08.061Z,101995.56
2023-05-25T14:56:35.486Z,102007.94
2023-05-25T14:59:02.146Z,102001.00
2023-05-25T15:01:29.523Z,102005.47
2023-05-25T15:03:56.666Z,102004.53
2023-05-25T15:06:23.578Z,102001.09
2023-05-25T15:08:50.369Z,102002.88
2023-05-25T15:11:18.042Z,102001.13
2023-05-25T15:13:44.892Z,102001.09
2023-05-25T15:16:12.740Z,101996.66
2023-05-25T15:18:39.496Z,101998.41
2023-05-25T15:21:06.319Z,101985.31
2023-05-25T15:23:33.037Z,101987.09
2023-05-25T15:26:04.151Z,101987.09
2023-05-25T15:28:31.372Z,101984.41
2023-05-25T15:30:59.464Z,101976.53
2023-05-25T15:33:36.118Z,101980.91
2023-05-25T15:36:10.645Z,101976.53
2023-05-25T15:38:37.226Z,101978.22
2023-05-25T15:41:03.984Z,101985.25
2023-05-25T15:43:30.649Z,101979.94
2023-05-25T15:45:57.333Z,101975.59
2023-05-25T15:48:26.185Z,101976.47
2023-05-25T15:50:53.124Z,101985.22
2023-05-25T15:53:20.129Z,101982.56
2023-05-25T15:55:47.199Z,101972.09
2023-05-25T15:58:14.052Z,101973.88
2023-05-25T16:00:40.729Z,101977.38
2023-05-25T16:03:07.396Z,101972.13
2023-05-25T16:05:34.358Z,101972.09
2023-05-25T16:08:01.125Z,101966.78
2023-05-25T16:10:27.777Z,101978.16
2023-05-25T16:12:54.426Z,101967.56
2023-05-25T16:15:22.894Z,101956.22
2023-05-25T16:17:49.474Z,101963.19
2023-05-25T16:20:16.361Z,101966.63
2023-05-25T16:22:43.148Z,101966.59
2023-05-25T16:25:12.818Z,101964.94
2023-05-25T16:27:39.571Z,101958.03
2023-05-25T16:30:06.912Z,101962.34
2023-05-25T16:32:33.538Z,101950.97
2023-05-25T16:35:00.397Z,101967.63
2023-05-25T16:37:27.434Z,101963.09
2023-05-25T16:39:54.092Z,101963.00
2023-05-25T16:42:20.735Z,101958.63
2023-05-25T16:44:47.352Z,101966.56
2023-05-25T16:47:13.944Z,101963.78
2023-05-25T16:49:40.706Z,101960.28
2023-05-25T16:52:07.405Z,101960.31
2023-05-25T16:54:34.018Z,101948.97
2023-05-25T16:57:02.176Z,101954.13
2023-05-25T16:59:28.897Z,101953.31
2023-05-25T17:01:55.942Z,101946.31
2023-05-25T17:04:25.516Z,101950.69
2023-05-25T17:06:52.807Z,101949.75
2023-05-25T17:09:19.479Z,101954.91
2023-05-25T17:11:46.173Z,101960.16
2023-05-25T17:14:13.133Z,101958.44
2023-05-25T17:16:39.944Z,101961.97
2023-05-25T17:19:06.694Z,101962.69
2023-05-25T17:21:34.867Z,101957.34
2023-05-25T17:24:01.545Z,101955.78
2023-05-25T17:26:28.113Z,101955.03
2023-05-25T17:28:54.926Z,101954.94
2023-05-25T17:31:21.651Z,101957.53
2023-05-25T17:33:48.319Z,101954.03
2023-05-25T17:36:14.971Z,101953.94
2023-05-25T17:38:43.549Z,101954.72
2023-05-25T17:41:10.467Z,101953.75
2023-05-25T17:43:37.185Z,101953.81
2023-05-25T17:46:03.952Z,101947.91
2023-05-25T17:48:30.661Z,101951.47
2023-05-25T17:50:57.367Z,101954.97
2023-05-25T17:53:23.963Z,101952.41
2023-05-25T17:55:50.648Z,101962.88
2023-05-25T17:58:17.324Z,101963.69
2023-05-25T18:00:44.116Z,101961.06
2023-05-25T18:03:12.057Z,101957.25
2023-05-25T18:05:39.055Z,101954.78
2023-05-25T18:08:05.809Z,101954.84
2023-05-25T18:10:32.581Z,101962.63
2023-05-25T18:12:59.208Z,101957.50
2023-05-25T18:15:25.845Z,101955.88
2023-05-25T18:17:52.617Z,101959.50
2023-05-25T18:20:19.356Z,101961.28
2023-05-25T18:22:45.946Z,101955.97
2023-05-25T18:25:12.632Z,101967.38
2023-05-25T18:27:39.223Z,101969.91
2023-05-25T18:30:06.557Z,101976.72
2023-05-25T18:32:33.230Z,101969.53
2023-05-25T18:34:59.841Z,101974.00
2023-05-25T18:37:27.409Z,101974.78
2023-05-25T18:39:54.305Z,101972.94
2023-05-25T18:42:20.900Z,101981.72
2023-05-25T18:44:48.517Z,101978.22
2023-05-25T18:47:15.115Z,101979.78
2023-05-25T18:49:42.053Z,101983.25
2023-05-25T18:52:10.523Z,101972.69
2023-05-25T18:54:39.198Z,101984.94
2023-05-25T18:57:07.282Z,101978.59
2023-05-25T18:59:36.996Z,101985.47
2023-05-25T19:02:04.686Z,101989.88
2023-05-25T19:04:31.479Z,101985.31
2023-05-25T19:06:58.133Z,101992.91
2023-05-25T19:09:24.964Z,101993.75
2023-05-25T19:11:51.717Z,101991.94
2023-05-25T19:14:18.675Z,101995.38
2023-05-25T19:16:47.300Z,101994.34
2023-05-25T19:19:15.382Z,102004.84
2023-05-25T19:21:41.936Z,102007.41
2023-05-25T19:24:09.966Z,102012.72
2023-05-25T19:26:37.857Z,102004.38
2023-05-25T19:29:04.912Z,102010.41
2023-05-25T19:31:31.614Z,102009.31
2023-05-25T19:33:58.366Z,102026.50
2023-05-25T19:36:24.998Z,102028.69
2023-05-25T19:38:51.786Z,102027.13
2023-05-25T19:41:18.483Z,102031.13
2023-05-25T19:43:45.287Z,102038.94
2023-05-25T19:46:12.063Z,102038.94
2023-05-25T19:48:40.082Z,102042.22
2023-05-25T19:51:06.928Z,102036.66
2023-05-25T19:53:33.636Z,102043.13
2023-05-25T19:56:00.242Z,102041.03
2023-05-25T19:58:26.868Z,102049.41
2023-05-25T20:00:53.945Z,102049.75
2023-05-25T20:03:21.198Z,102053.16
2023-05-25T20:05:48.191Z,102048.34
2023-05-25T20:08:14.951Z,102057.69
2023-05-25T20:10:43.975Z,102054.88
2023-05-25T20:13:10.829Z,102061.63
2023-05-25T20:15:37.429Z,102060.88
2023-05-25T20:18:04.297Z,102063.81
2023-05-25T20:20:31.259Z,102065.91
2023-05-25T20:22:58.051Z,102068.47
2023-05-25T20:25:24.835Z,102068.44
2023-05-25T20:27:51.559Z,102073.44
2023-05-25T20:30:18.365Z,102078.09
2023-05-25T20:32:45.051Z,102070.88
2023-05-25T20:35:13.216Z,102063.44
2023-05-25T20:37:40.065Z,102077.28
2023-05-25T20:40:07.163Z,102074.06
2023-05-25T20:42:33.843Z,102073.44
2023-05-25T20:45:00.566Z,102085.38
2023-05-25T20:47:27.558Z,102088.59
2023-05-25T20:49:54.252Z,102089.38
2023-05-25T20:52:21.428Z,102085.78
2023-05-25T20:54:48.187Z,102091.41
2023-05-25T20:57:15.032Z,102101.63
2023-05-25T20:59:41.711Z,102089.56
2023-05-25T21:02:08.434Z,102093.63
2023-05-25T21:04:35.126Z,102087.34
2023-05-25T21:07:01.804Z,102097.25
2023-05-25T21:09:28.431Z,102104.47
2023-05-25T21:11:54.989Z,102103.75
2023-05-25T21:14:21.768Z,102094.31
2023-05-25T21:16:50.021Z,102095.91
2023-05-25T21:19:17.108Z,102097.53
2023-05-25T21:21:43.949Z,102106.03
2023-05-25T21:24:10.560Z,102099.63
2023-05-25T21:26:37.306Z,102097.53
2023-05-25T21:29:03.877Z,102104.19
2023-05-25T21:31:30.459Z,102099.28
2023-05-25T21:33:58.259Z,102100.72
2023-05-25T21:36:25.975Z,102104.75
2023-05-25T21:38:52.613Z,102110.88
2023-05-25T21:41:19.442Z,102117.25
2023-05-25T21:43:46.032Z,102119.22
2023-05-25T21:46:12.676Z,102121.06
2023-05-25T21:48:39.268Z,102124.00
2023-05-25T21:51:06.012Z,102117.53
2023-05-25T21:53:32.855Z,102118.59
2023-05-25T21:55:59.434Z,102118.19
2023-05-25T21:58:26.066Z,102112.72
2023-05-25T22:00:52.791Z,102123.59
2023-05-25T22:03:19.501Z,102127.06
2023-05-25T22:05:46.573Z,102130.59
2023-05-25T22:08:13.505Z,102128.88
2023-05-25T22:10:40.095Z,102134.22
2023-05-25T22:13:07.146Z,102137.78
2023-05-25T22:15:34.151Z,102141.03
2023-05-25T22:18:01.543Z,102142.34
2023-05-25T22:20:28.324Z,102130.13
2023-05-25T22:22:54.941Z,102138.47
2023-05-25T22:25:21.533Z,102139.25
2023-05-25T22:27:48.192Z,102135.94
2023-05-25T22:30:15.533Z,102133.97
2023-05-25T22:32:42.282Z,102133.03
2023-05-25T22:35:09.240Z,102140.47
2023-05-25T22:37:36.020Z,102140.84
2023-05-25T22:40:02.731Z,102136.75
2023-05-25T22:42:29.369Z,102132.03
2023-05-25T22:44:56.109Z,102140.84
2023-05-25T22:47:22.850Z,102131.22
2023-05-25T22:49:49.501Z,102133.06
2023-05-25T22:52:16.142Z,102141.06
2023-05-25T22:54:43.062Z,102146.75
2023-05-25T22:57:10.469Z,102147.84
2023-05-25T22:59:37.242Z,102141.41
2023-05-25T23:02:04.274Z,102143.47
2023-05-25T23:04:31.176Z,102142.72
2023-05-25T23:06:57.818Z,102135.13
2023-05-25T23:09:24.466Z,102135.88
2023-05-25T23:11:51.078Z,102133.41
2023-05-25T23:14:17.976Z,102131.63
2023-05-25T23:16:48.473Z,102135.03
2023-05-25T23:19:16.649Z,102131.78
2023-05-25T23:21:43.878Z,102138.16
2023-05-25T23:24:10.517Z,102131.34
2023-05-25T23:26:37.140Z,102131.44
2023-05-25T23:29:03.801Z,102134.75
2023-05-25T23:31:30.647Z,102137.78
2023-05-25T23:33:57.340Z,102141.56
2023-05-25T23:36:26.077Z,102131.72
2023-05-25T23:38:52.965Z,102132.91
2023-05-25T23:41:19.981Z,102137.41
2023-05-25T23:43:46.678Z,102138.13
2023-05-25T23:46:16.232Z,102133.47
2023-05-25T23:48:43.158Z,102139.22
2023-05-25T23:51:10.400Z,102134.97
2023-05-25T23:53:38.462Z,102139.78
2023-05-25T23:56:05.397Z,102139.72
2023-05-25T23:58:32.133Z,102142.72
